createdAt,value
2019-04-07T00:02:14.446Z,77.68
2019-04-07T00:04:42.996Z,76.56
2019-04-07T00:07:12.071Z,76.13
2019-04-07T00:09:40.355Z,75.81
2019-04-07T00:12:08.655Z,75.68
2019-04-07T00:14:36.914Z,75.04
2019-04-07T00:17:05.712Z,75.01
2019-04-07T00:19:34.047Z,75.25
2019-04-07T00:22:02.313Z,75.23
2019-04-07T00:24:30.598Z,75.37
2019-04-07T00:26:58.857Z,76.04
2019-04-07T00:29:27.711Z,77.46
2019-04-07T00:31:56.144Z,78.26
2019-04-07T00:34:24.783Z,78.35
2019-04-07T00:36:53.641Z,78.63
2019-04-07T00:39:22.413Z,77.89
2019-04-07T00:41:50.820Z,77.54
2019-04-07T00:44:19.120Z,78.54
2019-04-07T00:46:47.656Z,79.01
2019-04-07T00:49:16.138Z,79.41
2019-04-07T00:51:44.411Z,77.69
2019-04-07T00:54:12.699Z,76.43
2019-04-07T00:56:41.185Z,75.76
2019-04-07T00:59:09.972Z,74.52
2019-04-07T01:01:38.318Z,75.22
2019-04-07T01:04:06.599Z,75.51
2019-04-07T01:06:34.850Z,76.24
2019-04-07T01:09:03.305Z,76.97
2019-04-07T01:11:32.090Z,77.26
2019-04-07T01:14:00.648Z,77.84
2019-04-07T01:16:29.410Z,78.44
2019-04-07T01:18:58.307Z,79.03
2019-04-07T01:21:26.561Z,78.16
2019-04-07T01:23:54.858Z,77.63
2019-04-07T01:26:23.120Z,77.65
2019-04-07T01:28:53.689Z,77.60
2019-04-07T01:31:22.467Z,77.55
2019-04-07T01:33:50.827Z,77.70
2019-04-07T01:36:19.082Z,77.87
2019-04-07T01:38:47.471Z,78.54
2019-04-07T01:41:34.059Z,78.28
2019-04-07T01:44:07.136Z,79.53
2019-04-07T01:46:43.210Z,80.36
2019-04-07T01:49:13.494Z,79.90
2019-04-07T01:51:43.375Z,80.71
2019-04-07T01:54:25.692Z,80.50
2019-04-07T01:57:07.885Z,80.62
2019-04-07T01:59:40.845Z,80.58
2019-04-07T02:02:26.863Z,80.38
2019-04-07T02:05:13.413Z,79.37
2019-04-07T02:07:43.651Z,78.27
2019-04-07T02:10:22.526Z,78.09
2019-04-07T02:12:53.101Z,77.68
2019-04-07T02:15:25.997Z,78.27
2019-04-07T02:18:02.618Z,77.72
2019-04-07T02:20:53.033Z,77.88
2019-04-07T02:23:39.375Z,77.78
2019-04-07T02:26:09.318Z,77.76
2019-04-07T02:28:48.388Z,77.96
2019-04-07T02:31:19.149Z,78.67
2019-04-07T02:34:05.600Z,79.87
2019-04-07T02:36:51.959Z,79.77
2019-04-07T02:39:34.669Z,80.03
2019-04-07T02:42:08.727Z,80.66
2019-04-07T02:44:48.276Z,80.31
2019-04-07T02:47:21.350Z,80.59
2019-04-07T02:50:07.879Z,79.95
2019-04-07T02:52:43.556Z,79.82
2019-04-07T02:55:14.379Z,79.38
2019-04-07T02:57:52.899Z,78.72
2019-04-07T03:00:25.487Z,79.14
2019-04-07T03:02:58.124Z,79.33
2019-04-07T03:05:40.434Z,79.01
2019-04-07T03:08:17.221Z,78.37
2019-04-07T03:10:50.078Z,77.92
2019-04-07T03:13:21.048Z,77.41
2019-04-07T03:15:54.590Z,77.02
2019-04-07T03:18:30.137Z,76.68
2019-04-07T03:21:19.649Z,76.46
2019-04-07T03:23:52.972Z,76.33
2019-04-07T03:26:42.460Z,76.36
2019-04-07T03:29:16.081Z,76.47
2019-04-07T03:32:02.936Z,76.32
2019-04-07T03:34:35.685Z,76.19
2019-04-07T03:37:26.235Z,75.27
2019-04-07T03:39:40.971Z,75.61
2019-04-07T03:44:54.930Z,75.27
2019-04-07T03:47:25.938Z,75.01
2019-04-07T03:49:59.709Z,74.47
2019-04-07T03:52:35.595Z,73.87
2019-04-07T03:55:22.823Z,73.67
2019-04-07T03:58:01.726Z,73.90
2019-04-07T04:00:58.974Z,73.91
2019-04-07T04:03:41.013Z,74.30
2019-04-07T04:06:30.153Z,75.03
2019-04-07T04:11:51.913Z,74.97
2019-04-07T04:14:22.065Z,75.12
2019-04-07T04:16:51.951Z,75.36
2019-04-07T04:19:20.870Z,76.11
2019-04-07T04:21:49.186Z,76.11
2019-04-07T04:24:18.228Z,76.27
2019-04-07T04:26:47.541Z,76.19
2019-04-07T04:29:16.839Z,76.62
2019-04-07T04:31:45.913Z,76.80
2019-04-07T04:34:15.136Z,76.81
2019-04-07T04:36:43.463Z,75.94
2019-04-07T04:39:12.955Z,75.54
2019-04-07T04:41:42.604Z,75.40
2019-04-07T04:44:11.177Z,74.73
2019-04-07T04:46:39.417Z,74.40
2019-04-07T04:49:07.816Z,73.92
2019-04-07T04:51:39.270Z,73.72
2019-04-07T04:54:07.006Z,73.73
2019-04-07T04:56:36.146Z,74.05
2019-04-07T04:59:04.594Z,73.95
2019-04-07T05:01:33.116Z,73.99
2019-04-07T05:04:01.433Z,73.88
2019-04-07T05:06:29.738Z,74.14
2019-04-07T05:08:58.128Z,74.19
2019-04-07T05:11:26.486Z,74.22
2019-04-07T05:13:54.775Z,73.99
2019-04-07T05:16:23.137Z,74.03
2019-04-07T05:18:51.863Z,73.93
2019-04-07T05:21:20.714Z,74.72
2019-04-07T05:23:48.987Z,74.56
2019-04-07T05:26:17.258Z,74.55
2019-04-07T05:28:45.940Z,74.56
2019-04-07T05:31:14.507Z,74.98
2019-04-07T05:33:43.261Z,75.00
2019-04-07T05:36:12.201Z,75.28
2019-04-07T05:38:41.011Z,76.44
2019-04-07T05:41:10.740Z,76.27
2019-04-07T05:43:39.180Z,76.70
2019-04-07T05:46:08.313Z,76.98
2019-04-07T05:48:37.287Z,77.17
2019-04-07T05:51:05.582Z,77.28
2019-04-07T05:53:34.476Z,77.08
2019-04-07T05:56:03.157Z,76.54
2019-04-07T05:58:31.442Z,76.40
2019-04-07T06:01:00.255Z,75.82
2019-04-07T06:03:28.578Z,76.30
2019-04-07T06:05:57.211Z,76.80
2019-04-07T06:08:32.654Z,76.42
2019-04-07T06:11:00.025Z,76.83
2019-04-07T06:13:25.575Z,77.04
2019-04-07T06:15:54.070Z,77.04
2019-04-07T06:18:22.878Z,76.98
2019-04-07T06:20:52.025Z,76.90
2019-04-07T06:23:24.270Z,76.90
2019-04-07T06:25:51.052Z,76.28
2019-04-07T06:28:19.419Z,76.37
2019-04-07T06:30:48.337Z,76.53
2019-04-07T06:33:17.491Z,76.15
2019-04-07T06:35:47.368Z,75.96
2019-04-07T06:38:16.628Z,75.82
2019-04-07T06:40:45.062Z,75.18
2019-04-07T06:43:14.562Z,74.63
2019-04-07T06:45:45.291Z,74.08
2019-04-07T06:48:14.396Z,73.89
2019-04-07T06:50:58.340Z,73.45
2019-04-07T06:53:31.270Z,73.68
2019-04-07T06:56:05.026Z,72.78
2019-04-07T06:58:41.132Z,72.38
2019-04-07T07:01:11.114Z,72.34
2019-04-07T07:03:57.594Z,72.50
2019-04-07T07:06:28.464Z,72.30
2019-04-07T07:09:02.036Z,72.79
2019-04-07T07:11:34.382Z,73.04
2019-04-07T07:14:12.373Z,72.27
2019-04-07T07:16:43.790Z,72.66
2019-04-07T07:22:15.851Z,71.72
2019-04-07T07:24:45.903Z,71.81
2019-04-07T07:27:12.980Z,71.23
2019-04-07T07:29:45.410Z,71.63
2019-04-07T07:32:11.580Z,71.41
2019-04-07T07:34:42.236Z,71.11
2019-04-07T07:37:10.618Z,71.28
2019-04-07T07:39:41.857Z,70.68
2019-04-07T07:42:09.395Z,70.42
2019-04-07T07:44:39.608Z,70.87
2019-04-07T07:47:07.988Z,70.44
2019-04-07T07:49:40.081Z,70.41
2019-04-07T07:52:06.250Z,69.89
2019-04-07T07:54:35.229Z,70.22
2019-04-07T07:57:03.569Z,69.48
2019-04-07T07:59:37.779Z,69.28
2019-04-07T08:02:02.444Z,69.01
2019-04-07T08:04:30.809Z,68.14
2019-04-07T08:06:59.084Z,69.02
2019-04-07T08:09:28.238Z,68.22
2019-04-07T08:11:56.603Z,68.47
2019-04-07T08:14:29.339Z,68.52
2019-04-07T08:17:00.211Z,69.15
2019-04-07T08:19:29.655Z,68.48
2019-04-07T08:21:58.415Z,68.37
2019-04-07T08:24:27.254Z,67.70
2019-04-07T08:26:57.121Z,66.49
2019-04-07T08:29:25.795Z,66.13
2019-04-07T08:31:55.393Z,66.92
2019-04-07T08:34:23.239Z,65.78
2019-04-07T08:36:51.961Z,64.72
2019-04-07T08:39:25.191Z,64.05
2019-04-07T08:41:50.704Z,64.15
2019-04-07T08:44:19.018Z,64.17
2019-04-07T08:46:47.355Z,63.17
2019-04-07T08:49:15.612Z,63.11
2019-04-07T08:51:43.938Z,62.58
2019-04-07T08:54:15.730Z,61.80
2019-04-07T08:56:42.376Z,61.80
2019-04-07T08:59:12.967Z,62.13
2019-04-07T09:01:40.673Z,62.21
2019-04-07T09:04:09.457Z,61.71
2019-04-07T09:06:38.525Z,60.65
2019-04-07T09:09:08.094Z,60.16
2019-04-07T09:11:39.104Z,60.58
2019-04-07T09:14:07.981Z,60.47
2019-04-07T09:16:41.630Z,59.81
2019-04-07T09:19:14.943Z,59.60
2019-04-07T09:21:50.141Z,59.41
2019-04-07T09:24:19.063Z,60.49
2019-04-07T09:26:52.417Z,60.15
2019-04-07T09:29:24.970Z,58.44
2019-04-07T09:31:57.570Z,57.98
2019-04-07T09:34:33.549Z,57.42
2019-04-07T09:37:06.909Z,56.69
2019-04-07T09:39:58.509Z,54.75
2019-04-07T09:42:26.785Z,52.24
2019-04-07T09:44:57.410Z,53.23
2019-04-07T09:47:27.411Z,50.37
2019-04-07T09:50:00.475Z,51.57
2019-04-07T09:52:37.041Z,52.87
2019-04-07T09:55:16.885Z,50.47
2019-04-07T09:58:02.242Z,49.45
2019-04-07T10:00:50.205Z,50.60
2019-04-07T10:03:19.948Z,52.41
2019-04-07T10:05:52.943Z,50.42
2019-04-07T10:08:26.080Z,51.11
2019-04-07T10:10:59.424Z,48.41
2019-04-07T10:13:29.648Z,47.52
2019-04-07T10:16:15.516Z,47.21
2019-04-07T10:18:57.747Z,48.43
2019-04-07T10:21:39.769Z,49.71
2019-04-07T10:24:13.004Z,50.14
2019-04-07T10:26:45.670Z,48.83
2019-04-07T10:29:31.908Z,49.79
2019-04-07T10:32:07.838Z,45.98
2019-04-07T10:34:38.660Z,46.44
2019-04-07T10:37:14.653Z,45.57
2019-04-07T10:39:48.389Z,41.65
2019-04-07T10:42:21.901Z,40.31
2019-04-07T10:45:03.788Z,39.53
2019-04-07T10:47:33.746Z,37.88
2019-04-07T10:50:18.319Z,41.33
2019-04-07T10:53:03.773Z,42.07
2019-04-07T10:55:45.669Z,38.12
2019-04-07T10:58:18.020Z,36.61
2019-04-07T11:00:50.778Z,37.93
2019-04-07T11:03:23.007Z,40.79
2019-04-07T11:05:59.345Z,38.20
2019-04-07T11:08:45.465Z,35.81
2019-04-07T11:11:33.387Z,35.30
2019-04-07T11:14:12.069Z,36.29
2019-04-07T11:16:45.213Z,36.53
2019-04-07T11:19:32.196Z,39.24
2019-04-07T11:22:09.050Z,36.45
2019-04-07T11:24:41.769Z,36.59
2019-04-07T11:27:14.788Z,38.79
2019-04-07T11:29:53.926Z,37.22
2019-04-07T11:32:28.240Z,35.47
2019-04-07T11:35:01.561Z,37.33
2019-04-07T11:37:47.278Z,38.68
2019-04-07T11:40:20.961Z,40.79
2019-04-07T11:42:51.017Z,41.10
2019-04-07T11:45:23.731Z,39.87
2019-04-07T11:47:54.440Z,38.25
2019-04-07T11:50:24.414Z,35.46
2019-04-07T11:52:57.307Z,35.95
2019-04-07T11:55:44.265Z,37.95
2019-04-07T11:58:23.021Z,38.24
2019-04-07T12:00:57.208Z,36.78
2019-04-07T12:03:35.856Z,34.96
2019-04-07T12:06:08.664Z,34.67
2019-04-07T12:08:54.684Z,41.96
2019-04-07T12:11:31.053Z,41.96
2019-04-07T12:16:55.042Z,39.94
2019-04-07T12:19:26.177Z,39.99
2019-04-07T12:22:14.136Z,38.90
2019-04-07T12:24:50.195Z,37.55
2019-04-07T12:27:26.989Z,36.88
2019-04-07T12:29:57.016Z,35.43
2019-04-07T12:32:35.967Z,34.10
2019-04-07T12:35:07.402Z,32.93
2019-04-07T12:37:49.136Z,32.69
2019-04-07T12:40:22.892Z,31.90
2019-04-07T12:43:02.509Z,35.94
2019-04-07T12:45:33.665Z,34.84
2019-04-07T12:48:19.877Z,34.69
2019-04-07T12:50:50.920Z,33.31
2019-04-07T12:53:25.143Z,34.79
2019-04-07T12:56:09.999Z,37.31
2019-04-07T12:58:44.071Z,38.84
2019-04-07T13:01:17.658Z,40.28
2019-04-07T13:03:52.526Z,40.25
2019-04-07T13:06:29.088Z,40.84
2019-04-07T13:09:01.538Z,40.94
2019-04-07T13:11:49.673Z,40.21
2019-04-07T13:14:25.664Z,40.16
2019-04-07T13:17:12.621Z,39.86
2019-04-07T13:19:46.707Z,41.12
2019-04-07T13:22:15.072Z,43.59
2019-04-07T13:24:57.011Z,47.08
2019-04-07T13:27:41.543Z,46.33
2019-04-07T13:30:22.522Z,47.70
2019-04-07T13:33:11.345Z,48.52
2019-04-07T13:35:57.526Z,48.62
2019-04-07T13:38:43.049Z,49.49
2019-04-07T13:41:17.755Z,49.74
2019-04-07T13:43:54.773Z,50.85
2019-04-07T13:46:31.777Z,51.38
2019-04-07T13:49:02.817Z,51.19
2019-04-07T13:51:33.101Z,51.35
2019-04-07T13:54:21.200Z,51.46
2019-04-07T13:56:54.776Z,50.15
2019-04-07T13:59:39.299Z,50.82
2019-04-07T14:02:29.610Z,50.63
2019-04-07T14:05:15.559Z,51.63
2019-04-07T14:08:01.337Z,52.03
2019-04-07T14:10:40.471Z,51.34
2019-04-07T14:13:10.501Z,50.85
2019-04-07T14:15:40.937Z,50.39
2019-04-07T14:18:20.171Z,50.37
2019-04-07T14:20:56.224Z,50.56
2019-04-07T14:23:31.643Z,50.47
2019-04-07T14:26:02.340Z,48.75
2019-04-07T14:28:38.988Z,49.29
2019-04-07T14:31:15.268Z,49.89
2019-04-07T14:33:45.919Z,49.84
2019-04-07T14:36:22.711Z,50.06
2019-04-07T14:39:05.269Z,51.21
2019-04-07T14:41:35.692Z,51.89
2019-04-07T14:44:22.550Z,52.83
2019-04-07T14:47:00.077Z,52.77
2019-04-07T14:49:33.326Z,53.15
2019-04-07T14:52:06.725Z,54.08
2019-04-07T14:54:46.454Z,53.99
2019-04-07T14:57:16.962Z,54.61
2019-04-07T14:59:56.322Z,54.35
2019-04-07T15:02:24.835Z,53.68
2019-04-07T15:04:55.087Z,53.71
2019-04-07T15:07:32.452Z,53.63
2019-04-07T15:10:03.216Z,53.32
2019-04-07T15:12:33.881Z,53.62
2019-04-07T15:15:08.443Z,53.54
2019-04-07T15:17:32.945Z,53.55
2019-04-07T15:20:01.491Z,53.35
2019-04-07T15:22:31.075Z,53.76
2019-04-07T15:25:00.165Z,53.36
2019-04-07T15:27:28.660Z,53.29
2019-04-07T15:29:57.748Z,53.34
2019-04-07T15:32:28.611Z,53.16
2019-04-07T15:34:56.165Z,52.59
2019-04-07T15:37:25.112Z,52.86
2019-04-07T15:39:53.399Z,52.33
2019-04-07T15:42:33.915Z,52.54
2019-04-07T15:44:52.009Z,52.16
2019-04-07T15:47:21.901Z,52.37
2019-04-07T15:49:51.337Z,52.36
2019-04-07T15:52:20.653Z,51.54
2019-04-07T15:54:49.042Z,51.23
2019-04-07T15:57:20.209Z,51.41
2019-04-07T15:59:48.077Z,52.45
2019-04-07T16:02:17.221Z,53.09
2019-04-07T16:04:45.596Z,53.63
2019-04-07T16:07:14.590Z,54.93
2019-04-07T16:09:50.805Z,54.65
2019-04-07T16:12:13.447Z,54.92
2019-04-07T16:14:44.266Z,54.26
2019-04-07T16:17:12.127Z,55.49
2019-04-07T16:19:44.066Z,54.95
2019-04-07T16:22:12.494Z,55.59
2019-04-07T16:24:41.586Z,56.67
2019-04-07T16:27:10.890Z,57.22
2019-04-07T16:29:39.816Z,56.80
2019-04-07T16:32:08.228Z,56.43
2019-04-07T16:34:38.797Z,56.25
2019-04-07T16:37:06.508Z,55.79
2019-04-07T16:39:35.016Z,55.47
2019-04-07T16:42:03.272Z,55.51
2019-04-07T16:44:31.881Z,55.85
2019-04-07T16:47:03.732Z,58.37
2019-04-07T16:49:30.430Z,60.14
2019-04-07T16:52:01.926Z,61.66
2019-04-07T16:54:29.074Z,61.72
2019-04-07T16:56:58.396Z,62.15
2019-04-07T16:59:27.540Z,62.47
2019-04-07T17:01:55.927Z,61.83
2019-04-07T17:04:28.147Z,63.20
2019-04-07T17:07:02.383Z,63.35
2019-04-07T17:09:28.229Z,62.80
2019-04-07T17:11:56.727Z,63.01
2019-04-07T17:14:25.766Z,63.40
2019-04-07T17:16:55.821Z,64.37
2019-04-07T17:19:26.643Z,64.65
2019-04-07T17:21:55.510Z,64.79
2019-04-07T17:24:27.204Z,65.10
2019-04-07T17:26:54.135Z,66.64
2019-04-07T17:29:23.521Z,65.28
2019-04-07T17:31:52.179Z,66.58
2019-04-07T17:34:20.574Z,68.75
2019-04-07T17:36:53.098Z,71.14
2019-04-07T17:39:26.191Z,72.30
2019-04-07T17:41:56.072Z,72.00
2019-04-07T17:44:35.136Z,74.56
2019-04-07T17:47:21.236Z,76.42
2019-04-07T17:49:51.160Z,76.62
2019-04-07T17:52:26.512Z,77.24
2019-04-07T17:55:12.759Z,75.52
2019-04-07T17:57:52.071Z,74.72
2019-04-07T18:00:38.378Z,76.66
2019-04-07T18:03:11.632Z,77.70
2019-04-07T18:05:50.880Z,78.60
2019-04-07T18:08:29.460Z,79.86
2019-04-07T18:11:00.732Z,79.14
2019-04-07T18:13:50.194Z,79.18
2019-04-07T18:16:24.841Z,79.90
2019-04-07T18:19:14.145Z,78.82
2019-04-07T18:22:02.444Z,78.98
2019-04-07T18:24:32.404Z,78.23
2019-04-07T18:27:15.914Z,78.57
2019-04-07T18:30:04.067Z,78.96
2019-04-07T18:32:37.402Z,78.77
2019-04-07T18:35:08.431Z,78.57
2019-04-07T18:37:42.173Z,81.27
2019-04-07T18:40:29.519Z,81.00
2019-04-07T18:43:16.625Z,79.91
2019-04-07T18:46:01.870Z,79.85
2019-04-07T18:48:47.805Z,79.95
2019-04-07T18:51:23.683Z,80.90
2019-04-07T18:53:58.475Z,81.95
2019-04-07T18:56:44.017Z,82.57
2019-04-07T18:59:31.275Z,80.91
2019-04-07T19:02:01.397Z,81.68
2019-04-07T19:04:47.824Z,83.92
2019-04-07T19:07:21.295Z,84.62
2019-04-07T19:10:05.102Z,83.81
2019-04-07T19:12:35.043Z,83.65
2019-04-07T19:15:14.427Z,84.21
2019-04-07T19:17:47.120Z,83.37
2019-04-07T19:20:26.911Z,82.89
2019-04-07T19:23:02.393Z,84.48
2019-04-07T19:25:35.634Z,85.22
2019-04-07T19:28:11.414Z,85.07
2019-04-07T19:30:59.154Z,85.95
2019-04-07T19:33:45.393Z,85.16
2019-04-07T19:36:24.045Z,85.75
2019-04-07T19:42:04.588Z,85.90
2019-04-07T19:44:42.482Z,85.87
2019-04-07T19:47:11.971Z,85.89
2019-04-07T19:49:47.632Z,85.92
2019-04-07T19:52:21.633Z,84.88
2019-04-07T19:55:06.663Z,83.43
2019-04-07T19:57:42.742Z,84.38
2019-04-07T20:00:30.731Z,82.11
2019-04-07T20:03:08.780Z,81.70
2019-04-07T20:05:48.794Z,81.15
2019-04-07T20:08:20.283Z,81.25
2019-04-07T20:10:54.893Z,80.49
2019-04-07T20:13:34.433Z,81.33
2019-04-07T20:16:08.193Z,80.57
2019-04-07T20:18:39.823Z,80.91
2019-04-07T20:21:19.826Z,81.40
2019-04-07T20:23:52.878Z,80.33
2019-04-07T20:26:22.894Z,81.33
2019-04-07T20:29:05.187Z,79.46
2019-04-07T20:31:39.011Z,79.58
2019-04-07T20:34:09.784Z,80.49
2019-04-07T20:36:55.995Z,80.28
2019-04-07T20:39:29.487Z,80.78
2019-04-07T20:41:57.552Z,81.45
2019-04-07T20:44:36.621Z,82.19
2019-04-07T20:47:23.042Z,82.96
2019-04-07T20:50:10.728Z,83.12
2019-04-07T20:53:08.423Z,81.65
2019-04-07T20:55:41.342Z,81.09
2019-04-07T20:58:23.790Z,81.76
2019-04-07T21:00:58.549Z,80.12
2019-04-07T21:03:40.426Z,80.47
2019-04-07T21:06:30.187Z,79.99
2019-04-07T21:09:17.358Z,80.76
2019-04-07T21:11:50.096Z,81.02
2019-04-07T21:14:20.813Z,81.83
2019-04-07T21:17:03.877Z,81.53
2019-04-07T21:19:49.674Z,79.98
2019-04-07T21:22:29.859Z,80.52
2019-04-07T21:25:05.641Z,80.45
2019-04-07T21:27:37.146Z,80.95
2019-04-07T21:30:27.274Z,80.12
2019-04-07T21:32:57.201Z,81.27
2019-04-07T21:35:35.088Z,81.06
2019-04-07T21:38:04.454Z,80.00
2019-04-07T21:40:42.302Z,82.94
2019-04-07T21:43:29.452Z,81.35
2019-04-07T21:46:05.157Z,80.93
2019-04-07T21:48:37.528Z,80.67
2019-04-07T21:51:15.544Z,81.16
2019-04-07T21:53:45.478Z,82.03
2019-04-07T21:56:15.717Z,82.52
2019-04-07T21:59:01.191Z,82.71
2019-04-07T22:01:46.311Z,81.11
2019-04-07T22:04:18.866Z,80.62
2019-04-07T22:06:48.604Z,81.57
2019-04-07T22:09:24.715Z,82.11
2019-04-07T22:11:54.684Z,82.45
2019-04-07T22:14:23.645Z,81.82
2019-04-07T22:16:51.905Z,82.09
2019-04-07T22:19:20.308Z,81.54
2019-04-07T22:21:52.968Z,82.06
2019-04-07T22:24:18.867Z,82.04
2019-04-07T22:26:49.901Z,81.34
2019-04-07T22:29:18.209Z,81.42
2019-04-07T22:31:48.158Z,81.92
2019-04-07T22:34:16.591Z,82.10
2019-04-07T22:36:47.534Z,82.36
2019-04-07T22:39:14.856Z,81.81
2019-04-07T22:41:44.210Z,82.15
2019-04-07T22:44:13.350Z,82.10
2019-04-07T22:46:41.700Z,82.81
2019-04-07T22:49:09.941Z,81.69
2019-04-07T22:51:38.233Z,82.57
2019-04-07T22:54:06.492Z,82.56
2019-04-07T22:56:38.128Z,82.70
2019-04-07T22:59:05.725Z,83.26
2019-04-07T23:01:34.286Z,83.74
2019-04-07T23:04:03.475Z,84.38
2019-04-07T23:06:31.906Z,84.14
2019-04-07T23:09:00.162Z,84.57
2019-04-07T23:11:28.459Z,84.85
2019-04-07T23:13:57.649Z,85.32
2019-04-07T23:16:25.927Z,84.84
2019-04-07T23:18:54.235Z,85.63
2019-04-07T23:21:23.412Z,85.21
2019-04-07T23:23:51.703Z,85.29
2019-04-07T23:26:20.216Z,85.95
2019-04-07T23:28:48.611Z,85.85
2019-04-07T23:31:17.261Z,85.36
2019-04-07T23:33:45.927Z,85.37
2019-04-07T23:36:14.173Z,85.73
2019-04-07T23:38:42.446Z,86.11
2019-04-07T23:41:11.652Z,86.58
2019-04-07T23:43:39.698Z,86.36
2019-04-07T23:46:19.593Z,86.49
2019-04-07T23:48:38.192Z,86.16
2019-04-07T23:51:06.463Z,86.55
2019-04-07T23:54:11.807Z,86.41
2019-04-07T23:56:41.543Z,85.86
2019-04-07T23:59:10.357Z,87.00
